Terminal Aerodrome Forecast
Issued by NWS

Home | Current Version | Previous Version | Text Only | Print | Product List | Glossary Off
Versions: 1 2 3 4 5 6 7 8 9 10 11 12

000
FTUS43 KICT 022339
TAFSLN
TAF
KSLN 022339Z 0300/0324 VRB05KT P6SM FEW060 BKN200
     FM030200 VRB05KT P6SM SCT080 BKN150
     FM030600 18007KT P6SM BKN100
     FM031300 16007KT P6SM SCT150
     FM031800 VRB05KT P6SM SCT250=

USA.gov is the U.S. government's official web portal to all federal, state and local government web resources and services.